createdAt,value
2024-05-09T00:00:54.235Z,102177.47
2024-05-09T00:03:47.038Z,102220.25
2024-05-09T00:06:18.548Z,102219.91
2024-05-09T00:08:50.247Z,102173.41
2024-05-09T00:11:23.189Z,102221.63
2024-05-09T00:13:54.333Z,102200.94
2024-05-09T00:16:25.765Z,102151.16
2024-05-09T00:18:56.851Z,102226.59
2024-05-09T00:21:28.285Z,102222.19
2024-05-09T00:23:59.280Z,102208.16
2024-05-09T00:26:30.724Z,102216.72
2024-05-09T00:29:01.869Z,102151.50
2024-05-09T00:31:33.236Z,102198.75
2024-05-09T00:34:04.420Z,102181.16
2024-05-09T00:36:35.994Z,102199.50
2024-05-09T00:39:07.047Z,102207.03
2024-05-09T00:41:39.676Z,102199.88
2024-05-09T00:44:11.142Z,102172.66
2024-05-09T00:46:43.009Z,102202.09
2024-05-09T00:49:15.985Z,102172.19
2024-05-09T00:51:47.392Z,102201.91
2024-05-09T00:54:20.092Z,102200.91
2024-05-09T00:56:53.128Z,102196.28
2024-05-09T00:59:24.661Z,102198.34
2024-05-09T01:01:56.714Z,102202.78
2024-05-09T01:04:27.877Z,102180.56
2024-05-09T01:06:59.333Z,102150.63
2024-05-09T01:09:30.469Z,102196.78
2024-05-09T01:12:02.028Z,102181.91
2024-05-09T01:14:33.256Z,102161.22
2024-05-09T01:17:04.740Z,102184.44
2024-05-09T01:19:36.546Z,102179.16
2024-05-09T01:22:08.265Z,102177.13
2024-05-09T01:24:39.227Z,102176.13
2024-05-09T01:27:10.595Z,102170.47
2024-05-09T01:29:41.536Z,102158.88
2024-05-09T01:32:13.083Z,102176.66
2024-05-09T01:34:44.255Z,102145.16
2024-05-09T01:37:15.643Z,102183.97
2024-05-09T01:39:46.548Z,102155.44
2024-05-09T01:42:18.808Z,102140.72
2024-05-09T01:44:49.739Z,102172.50
2024-05-09T01:47:21.347Z,102174.72
2024-05-09T01:49:52.451Z,102153.03
2024-05-09T01:52:23.908Z,102182.75
2024-05-09T01:54:54.899Z,102180.56
2024-05-09T01:57:26.287Z,102179.88
2024-05-09T01:59:57.296Z,102154.59
2024-05-09T02:02:28.844Z,102163.66
2024-05-09T02:05:00.056Z,102161.41
2024-05-09T02:07:31.828Z,102168.09
2024-05-09T02:10:06.591Z,102148.44
2024-05-09T02:12:40.428Z,102154.91
2024-05-09T02:15:11.693Z,102172.03
2024-05-09T02:17:43.226Z,102167.78
2024-05-09T02:20:22.542Z,102162.63
2024-05-09T02:22:59.886Z,102164.50
2024-05-09T02:25:30.975Z,102161.06
2024-05-09T02:28:02.732Z,102132.16
2024-05-09T02:30:39.675Z,102132.16
2024-05-09T02:33:14.524Z,102103.81
2024-05-09T02:35:46.569Z,102155.06
2024-05-09T02:38:15.425Z,102155.78
2024-05-09T02:40:46.517Z,102114.06
2024-05-09T02:43:15.358Z,102121.25
2024-05-09T02:45:46.352Z,102158.84
2024-05-09T02:48:15.333Z,102141.22
2024-05-09T02:50:46.620Z,102154.38
2024-05-09T02:53:16.038Z,102147.38
2024-05-09T02:55:47.218Z,102150.63
2024-05-09T02:58:16.008Z,102141.09
2024-05-09T03:00:46.953Z,102120.41
2024-05-09T03:03:16.097Z,102113.75
2024-05-09T03:05:48.238Z,102150.28
2024-05-09T03:08:17.135Z,102128.06
2024-05-09T03:10:48.053Z,102099.00
2024-05-09T03:13:17.445Z,102147.53
2024-05-09T03:15:48.820Z,102139.97
2024-05-09T03:18:17.839Z,102149.38
2024-05-09T03:20:49.152Z,102152.81
2024-05-09T03:23:17.994Z,102151.78
2024-05-09T03:25:49.005Z,102150.59
2024-05-09T03:28:17.866Z,102112.50
2024-05-09T03:30:49.100Z,102097.94
2024-05-09T03:33:19.785Z,102138.59
2024-05-09T03:35:52.437Z,102113.63
2024-05-09T03:38:23.927Z,102142.34
2024-05-09T03:40:55.654Z,102070.75
2024-05-09T03:43:27.231Z,102141.09
2024-05-09T03:45:58.219Z,102144.66
2024-05-09T03:48:27.124Z,102122.75
2024-05-09T03:50:58.122Z,102119.47
2024-05-09T03:53:27.073Z,102140.81
2024-05-09T03:55:58.463Z,102095.50
2024-05-09T03:58:27.416Z,102135.16
2024-05-09T04:00:58.498Z,102129.31
2024-05-09T04:03:27.677Z,102131.19
2024-05-09T04:05:59.082Z,102132.53
2024-05-09T04:08:27.885Z,102108.19
2024-05-09T04:10:59.107Z,102086.84
2024-05-09T04:13:28.227Z,102099.63
2024-05-09T04:15:59.183Z,102115.66
2024-05-09T04:18:28.418Z,102080.66
2024-05-09T04:20:59.664Z,102107.72
2024-05-09T04:23:28.638Z,102107.28
2024-05-09T04:25:59.713Z,102080.94
2024-05-09T04:28:28.543Z,102116.53
2024-05-09T04:30:59.428Z,102102.28
2024-05-09T04:33:28.592Z,102109.47
2024-05-09T04:35:59.671Z,102074.94
2024-05-09T04:38:30.362Z,102080.47
2024-05-09T04:41:02.166Z,102050.41
2024-05-09T04:43:31.078Z,102106.09
2024-05-09T04:46:02.243Z,102088.78
2024-05-09T04:48:31.366Z,102094.50
2024-05-09T04:51:05.455Z,102106.50
2024-05-09T04:53:34.422Z,102110.41
2024-05-09T04:56:05.520Z,102095.13
2024-05-09T04:58:34.302Z,102110.00
2024-05-09T05:01:05.285Z,102098.97
2024-05-09T05:03:34.298Z,102103.59
2024-05-09T05:06:05.614Z,102087.38
2024-05-09T05:08:35.661Z,102057.09
2024-05-09T05:11:06.648Z,102068.31
2024-05-09T05:13:39.434Z,102085.88
2024-05-09T05:16:12.010Z,102078.28
2024-05-09T05:18:41.289Z,102041.19
2024-05-09T05:21:12.495Z,102082.50
2024-05-09T05:23:41.743Z,102070.72
2024-05-09T05:26:16.296Z,102057.78
2024-05-09T05:28:45.254Z,102060.50
2024-05-09T05:31:17.986Z,102039.50
2024-05-09T05:33:49.329Z,102062.28
2024-05-09T05:36:20.807Z,102068.19
2024-05-09T05:38:49.745Z,102057.97
2024-05-09T05:41:20.816Z,102033.41
2024-05-09T05:43:49.843Z,102015.31
2024-05-09T05:46:20.929Z,101993.72
2024-05-09T05:48:49.932Z,102011.56
2024-05-09T05:51:21.090Z,102012.72
2024-05-09T05:53:50.257Z,101994.94
2024-05-09T05:56:21.808Z,102004.25
2024-05-09T05:58:51.635Z,101986.66
2024-05-09T06:01:22.699Z,101950.75
2024-05-09T06:03:51.755Z,101945.19
2024-05-09T06:06:22.855Z,101895.34
2024-05-09T06:08:52.762Z,101922.13
2024-05-09T06:11:24.076Z,101914.13
2024-05-09T06:13:53.295Z,101919.38
2024-05-09T06:16:24.448Z,101919.09
2024-05-09T06:18:53.866Z,101918.72
2024-05-09T06:21:25.034Z,101925.56
2024-05-09T06:23:55.143Z,101915.63
2024-05-09T06:26:26.143Z,101913.16
2024-05-09T06:28:55.490Z,101890.97
2024-05-09T06:31:27.571Z,101904.03
2024-05-09T06:33:57.352Z,101904.81
2024-05-09T06:36:28.393Z,101854.50
2024-05-09T06:38:57.386Z,101880.81
2024-05-09T06:41:28.526Z,101882.38
2024-05-09T06:43:58.285Z,101876.31
2024-05-09T06:46:29.966Z,102009.94
2024-05-09T06:49:04.583Z,102003.28
2024-05-09T06:51:39.082Z,102006.41
2024-05-09T06:54:08.524Z,102015.16
2024-05-09T06:56:39.775Z,102019.03
2024-05-09T06:59:08.743Z,102013.97
2024-05-09T07:01:40.110Z,102010.97
2024-05-09T07:04:09.106Z,102000.28
2024-05-09T07:06:40.328Z,102013.69
2024-05-09T07:09:09.170Z,102013.00
2024-05-09T07:11:40.543Z,102025.78
2024-05-09T07:14:11.000Z,102007.13
2024-05-09T07:16:41.816Z,102034.97
2024-05-09T07:19:10.617Z,102019.78
2024-05-09T07:21:42.102Z,102008.63
2024-05-09T07:24:11.215Z,102015.91
2024-05-09T07:26:42.177Z,101994.66
2024-05-09T07:29:11.569Z,102000.59
2024-05-09T07:31:42.612Z,101995.06
2024-05-09T07:34:12.142Z,102004.53
2024-05-09T07:36:43.264Z,101979.28
2024-05-09T07:39:12.186Z,102022.66
2024-05-09T07:41:43.386Z,102022.63
2024-05-09T07:44:12.218Z,102020.69
2024-05-09T07:50:55.840Z,101987.13
2024-05-09T07:54:37.723Z,101991.03
2024-05-09T07:57:08.962Z,101995.00
2024-05-09T07:59:39.492Z,101990.19
2024-05-09T08:02:11.102Z,102002.78
2024-05-09T08:04:40.367Z,102007.78
2024-05-09T08:07:11.582Z,101977.22
2024-05-09T08:09:40.512Z,101982.69
2024-05-09T08:12:12.942Z,102001.13
2024-05-09T08:14:41.856Z,102006.44
2024-05-09T08:17:13.371Z,101990.19
2024-05-09T08:19:42.351Z,101999.91
2024-05-09T08:22:13.558Z,101973.38
2024-05-09T08:24:47.005Z,101995.84
2024-05-09T08:27:18.327Z,101993.75
2024-05-09T08:29:47.240Z,101981.41
2024-05-09T08:32:18.286Z,101987.38
2024-05-09T08:34:47.295Z,101996.59
2024-05-09T08:37:22.418Z,102004.75
2024-05-09T08:39:53.574Z,101936.50
2024-05-09T08:42:26.578Z,101980.69
2024-05-09T08:44:55.441Z,101978.09
2024-05-09T08:47:27.369Z,101985.66
2024-05-09T08:49:59.254Z,101935.81
2024-05-09T08:52:30.434Z,101968.69
2024-05-09T08:55:00.951Z,101942.56
2024-05-09T08:57:34.107Z,101965.34
2024-05-09T09:00:10.306Z,101968.94
2024-05-09T09:02:47.554Z,101920.22
2024-05-09T09:05:21.477Z,101946.97
2024-05-09T09:07:52.530Z,101960.59
2024-05-09T09:10:29.598Z,101960.56
2024-05-09T09:13:09.902Z,101967.63
2024-05-09T09:15:52.173Z,101963.06
2024-05-09T09:18:23.309Z,101939.25
2024-05-09T09:20:52.465Z,101961.53
2024-05-09T09:23:23.617Z,101955.00
2024-05-09T09:25:52.602Z,101950.59
2024-05-09T09:28:27.098Z,101973.81
2024-05-09T09:31:03.368Z,101960.13
2024-05-09T09:33:36.321Z,101962.84
2024-05-09T09:36:08.402Z,101950.22
2024-05-09T09:38:40.813Z,101946.53
2024-05-09T09:41:11.042Z,101924.41
2024-05-09T09:43:45.983Z,101931.44
2024-05-09T09:46:16.084Z,101952.47
2024-05-09T09:48:48.100Z,101912.44
2024-05-09T09:51:20.141Z,101926.88
2024-05-09T09:53:54.278Z,101928.16
2024-05-09T09:56:24.643Z,101948.06
2024-05-09T09:58:57.916Z,101939.03
2024-05-09T10:01:29.974Z,101925.00
2024-05-09T10:04:01.723Z,101906.84
2024-05-09T10:06:31.521Z,101915.41
2024-05-09T10:09:03.177Z,101919.19
2024-05-09T10:11:34.892Z,101896.56
2024-05-09T10:14:10.108Z,101917.13
2024-05-09T10:16:45.327Z,101899.31
2024-05-09T10:19:29.902Z,101896.94
2024-05-09T10:22:03.944Z,101904.28
2024-05-09T10:24:55.132Z,101885.78
2024-05-09T10:27:31.041Z,101878.84
2024-05-09T10:30:07.007Z,101907.41
2024-05-09T10:32:41.801Z,101908.47
2024-05-09T10:35:15.234Z,101894.19
2024-05-09T10:37:46.409Z,101912.06
2024-05-09T10:40:26.582Z,101854.28
2024-05-09T10:43:04.499Z,101901.81
2024-05-09T10:45:38.763Z,101912.09
2024-05-09T10:48:09.325Z,101878.94
2024-05-09T10:50:43.970Z,101897.41
2024-05-09T10:53:13.209Z,101896.28
2024-05-09T10:55:44.157Z,101894.72
2024-05-09T10:58:19.399Z,101874.72
2024-05-09T11:00:50.721Z,101872.31
2024-05-09T11:03:20.129Z,101883.47
2024-05-09T11:05:52.137Z,101883.47
2024-05-09T11:08:22.717Z,101886.31
2024-05-09T11:10:59.679Z,101874.69
2024-05-09T11:13:33.351Z,101879.66
2024-05-09T11:16:05.201Z,101877.56
2024-05-09T11:18:38.182Z,101883.88
2024-05-09T11:21:15.968Z,101862.75
2024-05-09T11:23:44.916Z,101829.97
2024-05-09T11:26:19.514Z,101827.38
2024-05-09T11:28:48.492Z,101867.78
2024-05-09T11:31:20.268Z,101865.03
2024-05-09T11:33:49.686Z,101844.34
2024-05-09T11:36:20.826Z,101719.59
2024-05-09T11:38:49.736Z,101853.38
2024-05-09T11:41:21.906Z,101856.22
2024-05-09T11:43:54.071Z,101844.03
2024-05-09T11:46:25.425Z,101855.31
2024-05-09T11:48:54.616Z,101836.66
2024-05-09T11:51:25.845Z,101850.47
2024-05-09T11:53:54.736Z,101861.25
2024-05-09T11:56:26.153Z,101831.56
2024-05-09T11:58:55.155Z,101839.53
2024-05-09T12:01:29.469Z,101825.06
2024-05-09T12:03:58.760Z,101842.50
2024-05-09T12:06:31.810Z,101846.38
2024-05-09T12:09:00.727Z,101863.94
2024-05-09T12:11:32.250Z,101830.75
2024-05-09T12:14:01.365Z,101849.34
2024-05-09T12:16:32.694Z,101823.81
2024-05-09T12:19:02.257Z,101851.06
2024-05-09T12:21:33.579Z,101849.38
2024-05-09T12:24:02.574Z,101850.44
2024-05-09T12:26:33.863Z,101825.41
2024-05-09T12:29:02.764Z,101852.59
2024-05-09T12:31:34.004Z,101855.84
2024-05-09T12:34:03.219Z,101802.44
2024-05-09T12:36:35.201Z,101857.72
2024-05-09T12:39:06.429Z,101856.31
2024-05-09T12:41:37.498Z,101854.66
2024-05-09T12:44:06.532Z,101853.44
2024-05-09T12:46:37.770Z,101855.31
2024-05-09T12:49:06.982Z,101850.31
2024-05-09T12:51:38.471Z,101827.38
2024-05-09T12:54:07.281Z,101810.97
2024-05-09T12:56:38.327Z,101835.63
2024-05-09T12:59:07.054Z,101842.69
2024-05-09T13:01:38.253Z,101819.72
2024-05-09T13:04:07.233Z,101830.81
2024-05-09T13:06:38.375Z,101821.69
2024-05-09T13:09:07.406Z,101836.09
2024-05-09T13:11:38.940Z,101825.28
2024-05-09T13:14:08.191Z,101845.66
2024-05-09T13:16:39.361Z,101831.22
2024-05-09T13:19:08.540Z,101837.28
2024-05-09T13:21:39.966Z,101825.31
2024-05-09T13:24:08.865Z,101831.16
2024-05-09T13:26:39.901Z,101826.84
2024-05-09T13:29:08.744Z,101834.88
2024-05-09T13:31:39.754Z,101827.34
2024-05-09T13:34:08.654Z,101830.56
2024-05-09T13:36:39.950Z,101803.63
2024-05-09T13:39:08.759Z,101837.38
2024-05-09T13:41:39.901Z,101838.50
2024-05-09T13:44:09.812Z,101823.03
2024-05-09T13:46:40.987Z,101809.81
2024-05-09T13:49:12.533Z,101791.75
2024-05-09T13:51:43.835Z,101818.28
2024-05-09T13:54:12.687Z,101754.81
2024-05-09T13:56:44.812Z,101808.91
2024-05-09T13:59:13.694Z,101814.69
2024-05-09T14:01:44.810Z,101810.34
2024-05-09T14:04:14.229Z,101812.69
2024-05-09T14:06:45.545Z,101809.06
2024-05-09T14:09:14.450Z,101817.66
2024-05-09T14:11:45.895Z,101813.44
2024-05-09T14:14:14.881Z,101792.34
2024-05-09T14:16:46.625Z,101805.84
2024-05-09T14:19:15.788Z,101807.41
2024-05-09T14:21:47.018Z,101775.56
2024-05-09T14:24:16.506Z,101776.13
2024-05-09T14:26:47.630Z,101795.44
2024-05-09T14:29:16.351Z,101801.72
2024-05-09T14:31:47.489Z,101793.31
2024-05-09T14:34:16.614Z,101803.28
2024-05-09T14:36:48.129Z,101739.63
2024-05-09T14:39:18.864Z,101786.78
2024-05-09T14:41:50.003Z,101769.06
2024-05-09T14:44:18.805Z,101769.84
2024-05-09T14:46:49.828Z,101764.22
2024-05-09T14:49:19.089Z,101756.16
2024-05-09T14:51:51.527Z,101748.22
2024-05-09T14:54:20.415Z,101745.06
2024-05-09T14:56:51.644Z,101747.34
2024-05-09T14:59:20.915Z,101747.19
2024-05-09T15:01:52.659Z,101744.88
2024-05-09T15:04:22.062Z,101749.97
2024-05-09T15:06:53.266Z,101735.88
2024-05-09T15:09:22.770Z,101744.06
2024-05-09T15:11:54.863Z,101703.66
2024-05-09T15:14:24.862Z,101734.81
2024-05-09T15:16:57.216Z,101738.91
2024-05-09T15:19:26.366Z,101731.03
2024-05-09T15:21:57.588Z,101694.91
2024-05-09T15:24:26.500Z,101715.97
2024-05-09T15:26:57.577Z,101715.00
2024-05-09T15:29:26.422Z,101715.91
2024-05-09T15:31:57.483Z,101719.84
2024-05-09T15:34:27.036Z,101693.72
2024-05-09T15:36:57.847Z,101704.25
2024-05-09T15:39:30.272Z,101704.38
2024-05-09T15:42:01.434Z,101699.09
2024-05-09T15:44:30.475Z,101704.09
2024-05-09T15:47:01.578Z,101701.97
2024-05-09T15:49:30.604Z,101700.69
2024-05-09T15:52:01.880Z,101665.25
2024-05-09T15:54:30.868Z,101671.38
2024-05-09T15:57:01.896Z,101702.59
2024-05-09T15:59:30.699Z,101697.59
2024-05-09T16:02:02.336Z,101701.84
2024-05-09T16:04:31.569Z,101661.09
2024-05-09T16:07:02.877Z,101687.13
2024-05-09T16:09:31.842Z,101688.13
2024-05-09T16:12:02.866Z,101668.16
2024-05-09T16:14:31.915Z,101681.09
2024-05-09T16:17:03.026Z,101662.50
2024-05-09T16:19:32.054Z,101673.09
2024-05-09T16:22:03.156Z,101679.31
2024-05-09T16:24:32.146Z,101667.69
2024-05-09T16:27:03.388Z,101661.94
2024-05-09T16:29:32.326Z,101670.09
2024-05-09T16:32:03.523Z,101666.16
2024-05-09T16:34:32.421Z,101672.84
2024-05-09T16:37:04.917Z,101674.66
2024-05-09T16:39:33.954Z,101683.06
2024-05-09T16:42:05.300Z,101651.34
2024-05-09T16:44:35.596Z,101685.03
2024-05-09T16:47:06.909Z,101666.31
2024-05-09T16:49:35.923Z,101666.84
2024-05-09T16:52:07.054Z,101624.75
2024-05-09T16:54:36.088Z,101670.34
2024-05-09T16:57:07.485Z,101663.31
2024-05-09T16:59:36.583Z,101665.72
2024-05-09T17:02:08.061Z,101664.19
2024-05-09T17:04:37.173Z,101656.59
2024-05-09T17:07:09.492Z,101656.41
2024-05-09T17:09:40.001Z,101659.44
2024-05-09T17:12:11.507Z,101653.19
2024-05-09T17:14:43.622Z,101639.56
2024-05-09T17:17:14.986Z,101656.91
2024-05-09T17:19:47.593Z,101653.47
2024-05-09T17:22:16.503Z,101650.72
2024-05-09T17:24:48.196Z,101615.44
2024-05-09T17:27:16.876Z,101658.97
2024-05-09T17:29:49.468Z,101659.47
2024-05-09T17:32:18.097Z,101658.00
2024-05-09T17:34:49.681Z,101592.47
2024-05-09T17:37:18.572Z,101646.41
2024-05-09T17:39:50.299Z,101623.47
2024-05-09T17:42:18.732Z,101606.16
2024-05-09T17:44:50.212Z,101652.22
2024-05-09T17:47:18.589Z,101653.34
2024-05-09T17:49:50.215Z,101641.22
2024-05-09T17:52:19.004Z,101646.16
2024-05-09T17:54:50.597Z,101626.31
2024-05-09T17:57:19.458Z,101656.09
2024-05-09T17:59:52.146Z,101653.22
2024-05-09T18:02:23.552Z,101647.19
2024-05-09T18:04:52.822Z,101640.22
2024-05-09T18:07:23.946Z,101649.69
2024-05-09T18:09:52.907Z,101627.09
2024-05-09T18:12:23.903Z,101651.66
2024-05-09T18:14:53.009Z,101659.44
2024-05-09T18:17:25.849Z,101664.69
2024-05-09T18:19:55.048Z,101627.00
2024-05-09T18:22:26.587Z,101661.81
2024-05-09T18:24:55.547Z,101665.38
2024-05-09T18:27:26.979Z,101640.84
2024-05-09T18:29:56.084Z,101667.50
2024-05-09T18:32:27.403Z,101644.72
2024-05-09T18:34:56.455Z,101601.06
2024-05-09T18:37:27.805Z,101673.00
2024-05-09T18:39:56.930Z,101642.03
2024-05-09T18:42:28.321Z,101597.53
2024-05-09T18:44:57.231Z,101676.44
2024-05-09T18:47:28.819Z,101671.19
2024-05-09T18:49:57.911Z,101650.22
2024-05-09T18:52:29.121Z,101664.84
2024-05-09T18:54:58.312Z,101657.94
2024-05-09T18:57:30.256Z,101673.94
2024-05-09T18:59:59.256Z,101680.34
2024-05-09T19:02:30.705Z,101675.28
2024-05-09T19:04:59.829Z,101679.56
2024-05-09T19:07:31.380Z,101656.25
2024-05-09T19:10:00.335Z,101672.41
2024-05-09T19:12:31.908Z,101658.38
2024-05-09T19:15:00.780Z,101537.81
2024-05-09T19:17:32.734Z,101664.13
2024-05-09T19:20:02.010Z,101647.00
2024-05-09T19:22:33.371Z,101658.00
2024-05-09T19:25:02.451Z,101613.59
2024-05-09T19:27:33.760Z,101665.84
2024-05-09T19:32:34.149Z,101636.38
2024-05-09T19:35:03.310Z,101655.47
2024-05-09T19:37:34.503Z,101647.69
2024-05-09T19:40:06.867Z,101663.16
2024-05-09T19:42:40.340Z,101632.56
2024-05-09T19:45:09.624Z,101656.00
2024-05-09T19:47:41.512Z,101652.69
2024-05-09T19:50:11.227Z,101627.47
2024-05-09T19:52:47.205Z,101650.56
2024-05-09T19:55:16.567Z,101651.81
2024-05-09T19:57:48.237Z,101608.44
2024-05-09T20:00:22.266Z,101648.41
2024-05-09T20:03:00.978Z,101636.56
2024-05-09T20:05:31.320Z,101650.13
2024-05-09T20:08:02.650Z,101637.63
2024-05-09T20:10:34.203Z,101639.09
2024-05-09T20:13:08.410Z,101634.31
2024-05-09T20:15:38.347Z,101636.97
2024-05-09T20:18:10.271Z,101634.88
2024-05-09T20:20:42.507Z,101633.63
2024-05-09T20:23:16.206Z,101640.03
2024-05-09T20:25:45.187Z,101636.25
2024-05-09T20:28:16.676Z,101625.59
2024-05-09T20:30:45.620Z,101610.84
2024-05-09T20:33:16.960Z,101607.44
2024-05-09T20:35:47.331Z,101629.47
2024-05-09T20:38:18.643Z,101621.41
2024-05-09T20:40:47.741Z,101618.00
2024-05-09T20:43:19.254Z,101550.31
2024-05-09T20:45:48.329Z,101596.84
2024-05-09T20:48:19.923Z,101611.22
2024-05-09T20:50:49.555Z,101620.09
2024-05-09T20:53:21.544Z,101605.50
2024-05-09T20:55:50.472Z,101591.53
2024-05-09T20:58:21.805Z,101602.28
2024-05-09T21:00:51.002Z,101609.06
2024-05-09T21:03:22.733Z,101590.19
2024-05-09T21:05:51.811Z,101606.94
2024-05-09T21:08:23.847Z,101597.16
2024-05-09T21:10:53.110Z,101586.00
2024-05-09T21:13:24.478Z,101586.97
2024-05-09T21:15:53.743Z,101525.53
2024-05-09T21:18:24.887Z,101595.25
2024-05-09T21:20:53.988Z,101561.78
2024-05-09T21:23:24.993Z,101572.94
2024-05-09T21:25:53.826Z,101590.03
2024-05-09T21:28:25.158Z,101552.81
2024-05-09T21:30:54.582Z,101580.41
2024-05-09T21:33:25.714Z,101584.41
2024-05-09T21:35:55.610Z,101585.66
2024-05-09T21:38:26.951Z,101515.63
2024-05-09T21:40:56.240Z,101573.06
2024-05-09T21:43:31.632Z,101573.69
2024-05-09T21:46:00.646Z,101572.38
2024-05-09T21:48:31.783Z,101574.28
2024-05-09T21:51:00.718Z,101577.69
2024-05-09T21:53:32.351Z,101571.22
2024-05-09T21:56:02.091Z,101544.34
2024-05-09T21:58:33.244Z,101553.00
2024-05-09T22:01:03.826Z,101566.22
2024-05-09T22:03:35.529Z,101499.66
2024-05-09T22:06:04.986Z,101563.31
2024-05-09T22:08:36.066Z,101559.47
2024-05-09T22:11:05.420Z,101563.78
2024-05-09T22:13:36.569Z,101552.56
2024-05-09T22:16:05.886Z,101509.88
2024-05-09T22:18:36.994Z,101556.13
2024-05-09T22:21:05.845Z,101533.97
2024-05-09T22:23:36.812Z,101501.03
2024-05-09T22:26:05.739Z,101546.47
2024-05-09T22:28:37.021Z,101546.09
2024-05-09T22:31:05.899Z,101537.16
2024-05-09T22:33:37.284Z,101468.03
2024-05-09T22:36:08.735Z,101545.28
2024-05-09T22:38:39.807Z,101546.69
2024-05-09T22:41:08.718Z,101532.97
2024-05-09T22:43:39.928Z,101532.66
2024-05-09T22:46:09.201Z,101541.59
2024-05-09T22:48:40.384Z,101528.94
2024-05-09T22:51:09.234Z,101528.53
2024-05-09T22:53:40.270Z,101529.94
2024-05-09T22:56:09.054Z,101483.47
2024-05-09T22:58:40.055Z,101526.44
2024-05-09T23:01:15.596Z,101524.09
2024-05-09T23:03:46.885Z,101494.22
2024-05-09T23:06:16.202Z,101520.13
2024-05-09T23:08:47.277Z,101514.81
2024-05-09T23:11:16.399Z,101503.97
2024-05-09T23:13:47.410Z,101523.56
2024-05-09T23:16:16.340Z,101518.19
2024-05-09T23:18:47.432Z,101499.78
2024-05-09T23:21:16.337Z,101494.72
2024-05-09T23:23:47.195Z,101499.16
2024-05-09T23:26:16.024Z,101454.03
2024-05-09T23:28:47.078Z,101491.97
2024-05-09T23:31:15.939Z,101496.25
2024-05-09T23:33:50.242Z,101441.72
2024-05-09T23:36:19.365Z,101479.59
2024-05-09T23:38:51.656Z,101391.66
2024-05-09T23:41:20.640Z,101451.50
2024-05-09T23:43:51.624Z,101430.69
2024-05-09T23:46:20.533Z,101483.44
2024-05-09T23:48:51.644Z,101469.38
2024-05-09T23:51:20.911Z,101477.44
2024-05-09T23:53:51.904Z,101413.97
2024-05-09T23:56:21.717Z,101475.22
2024-05-09T23:58:52.717Z,101438.06
